createdAt,value
2023-03-06T00:00:21.873Z,94981.75
2023-03-06T00:02:49.058Z,94974.16
2023-03-06T00:05:15.990Z,94972.72
2023-03-06T00:07:43.325Z,94970.66
2023-03-06T00:10:16.690Z,94968.28
2023-03-06T00:12:43.456Z,94963.19
2023-03-06T00:15:10.668Z,94961.75
2023-03-06T00:17:37.314Z,94956.19
2023-03-06T00:20:05.074Z,94952.34
2023-03-06T00:22:32.013Z,94948.31
2023-03-06T00:24:58.613Z,94938.56
2023-03-06T00:27:26.228Z,94933.44
2023-03-06T00:29:56.129Z,94937.91
2023-03-06T00:32:23.778Z,94935.16
2023-03-06T00:34:52.016Z,94926.75
2023-03-06T00:37:19.336Z,94920.88
2023-03-06T00:39:46.547Z,94909.91
2023-03-06T00:42:13.492Z,94917.34
2023-03-06T00:44:40.079Z,94915.88
2023-03-06T00:47:06.684Z,94917.63
2023-03-06T00:49:33.318Z,94912.97
2023-03-06T00:52:00.316Z,94914.69
2023-03-06T00:54:26.864Z,94908.66
2023-03-06T00:56:53.491Z,94908.28
2023-03-06T00:59:20.049Z,94915.19
2023-03-06T01:01:46.872Z,94901.75
2023-03-06T01:04:14.520Z,94902.28
2023-03-06T01:06:41.230Z,94897.81
2023-03-06T01:09:07.833Z,94894.59
2023-03-06T01:11:34.388Z,94889.06
2023-03-06T01:14:01.050Z,94888.97
2023-03-06T01:16:27.753Z,94894.69
2023-03-06T01:18:54.496Z,94890.50
2023-03-06T01:21:23.018Z,94879.84
2023-03-06T01:23:49.986Z,94879.63
2023-03-06T01:26:16.715Z,94883.03
2023-03-06T01:28:43.531Z,94876.28
2023-03-06T01:31:10.712Z,94865.97
2023-03-06T01:33:38.502Z,94869.38
2023-03-06T01:36:11.294Z,94876.25
2023-03-06T01:38:38.108Z,94877.97
2023-03-06T01:41:05.481Z,94872.88
2023-03-06T01:43:35.774Z,94861.78
2023-03-06T01:46:28.303Z,94850.78
2023-03-06T01:49:06.485Z,94856.03
2023-03-06T01:51:40.618Z,94846.53
2023-03-06T01:54:15.308Z,94840.50
2023-03-06T01:56:46.778Z,94835.44
2023-03-06T01:59:14.609Z,94837.97
2023-03-06T02:01:41.820Z,94834.41
2023-03-06T02:04:09.777Z,94827.47
2023-03-06T02:06:38.794Z,94820.72
2023-03-06T02:09:06.546Z,94820.47
2023-03-06T02:11:33.387Z,94818.97
2023-03-06T02:14:00.291Z,94822.31
2023-03-06T02:16:29.437Z,94809.41
2023-03-06T02:18:58.546Z,94806.13
2023-03-06T02:21:28.976Z,94805.75
2023-03-06T02:24:29.454Z,94813.94
2023-03-06T02:26:57.537Z,94808.63
2023-03-06T02:29:27.512Z,94811.91
2023-03-06T02:31:56.711Z,94810.22
2023-03-06T02:34:23.181Z,94806.78
2023-03-06T02:37:02.924Z,94792.53
2023-03-06T02:39:32.894Z,94804.63
2023-03-06T02:42:00.044Z,94792.59
2023-03-06T02:44:30.194Z,94790.56
2023-03-06T02:46:56.768Z,94786.00
2023-03-06T02:49:26.066Z,94788.13
2023-03-06T02:51:52.982Z,94776.63
2023-03-06T02:54:19.611Z,94781.72
2023-03-06T02:56:46.367Z,94776.28
2023-03-06T02:59:13.166Z,94781.22
2023-03-06T03:01:39.952Z,94781.56
2023-03-06T03:04:06.624Z,94775.69
2023-03-06T03:06:33.239Z,94774.78
2023-03-06T03:09:00.243Z,94770.53
2023-03-06T03:11:27.975Z,94769.19
2023-03-06T03:13:54.816Z,94773.03
2023-03-06T03:16:24.192Z,94771.56
2023-03-06T03:18:53.644Z,94767.06
2023-03-06T03:21:22.238Z,94770.97
2023-03-06T03:23:49.167Z,94768.53
2023-03-06T03:26:18.777Z,94774.28
2023-03-06T03:28:52.760Z,94763.06
2023-03-06T03:31:21.099Z,94761.13
2023-03-06T03:33:47.736Z,94757.72
2023-03-06T03:36:14.335Z,94755.00
2023-03-06T03:38:44.837Z,94750.75
2023-03-06T03:41:11.712Z,94754.81
2023-03-06T03:43:38.312Z,94749.84
2023-03-06T03:46:05.972Z,94746.44
2023-03-06T03:48:32.888Z,94741.06
2023-03-06T03:51:09.244Z,94745.25
2023-03-06T03:53:39.526Z,94735.28
2023-03-06T03:56:07.569Z,94729.28
2023-03-06T03:58:40.106Z,94723.03
2023-03-06T04:01:06.657Z,94721.66
2023-03-06T04:03:34.055Z,94721.16
2023-03-06T04:06:01.255Z,94720.06
2023-03-06T04:08:28.431Z,94720.22
2023-03-06T04:10:56.037Z,94722.19
2023-03-06T04:13:23.888Z,94722.63
2023-03-06T04:15:54.893Z,94715.22
2023-03-06T04:18:23.511Z,94719.19
2023-03-06T04:20:51.535Z,94729.06
2023-03-06T04:23:19.085Z,94714.66
2023-03-06T04:25:46.787Z,94719.75
2023-03-06T04:28:13.376Z,94724.03
2023-03-06T04:30:40.030Z,94725.75
2023-03-06T04:33:07.418Z,94723.84
2023-03-06T04:35:34.490Z,94724.06
2023-03-06T04:38:05.964Z,94727.56
2023-03-06T04:40:35.206Z,94720.78
2023-03-06T04:43:03.131Z,94721.75
2023-03-06T04:45:31.437Z,94714.91
2023-03-06T04:47:58.564Z,94718.31
2023-03-06T04:50:26.114Z,94715.78
2023-03-06T04:52:52.965Z,94720.16
2023-03-06T04:55:19.766Z,94716.78
2023-03-06T04:57:47.411Z,94715.91
2023-03-06T05:00:17.248Z,94719.28
2023-03-06T05:02:44.441Z,94710.06
2023-03-06T05:05:12.264Z,94709.09
2023-03-06T05:07:39.482Z,94710.53
2023-03-06T05:10:06.862Z,94711.81
2023-03-06T05:12:37.146Z,94712.91
2023-03-06T05:15:05.122Z,94715.94
2023-03-06T05:17:32.284Z,94711.38
2023-03-06T05:19:58.800Z,94711.69
2023-03-06T05:22:25.357Z,94706.47
2023-03-06T05:24:51.926Z,94707.25
2023-03-06T05:27:18.651Z,94707.50
2023-03-06T05:29:45.182Z,94714.91
2023-03-06T05:32:11.889Z,94712.34
2023-03-06T05:34:40.006Z,94711.53
2023-03-06T05:37:06.643Z,94713.22
2023-03-06T05:39:33.323Z,94715.69
2023-03-06T05:41:59.881Z,94709.94
2023-03-06T05:44:32.013Z,94709.03
2023-03-06T05:46:58.790Z,94715.06
2023-03-06T05:49:25.654Z,94709.16
2023-03-06T05:51:52.216Z,94712.28
2023-03-06T05:54:19.243Z,94714.84
2023-03-06T05:56:46.046Z,94704.84
2023-03-06T05:59:12.615Z,94714.56
2023-03-06T06:01:39.217Z,94710.09
2023-03-06T06:04:05.806Z,94715.56
2023-03-06T06:06:32.402Z,94713.09
2023-03-06T06:08:59.036Z,94703.44
2023-03-06T06:11:25.583Z,94714.19
2023-03-06T06:13:52.201Z,94707.41
2023-03-06T06:16:19.438Z,94710.19
2023-03-06T06:18:46.209Z,94707.25
2023-03-06T06:21:14.743Z,94709.47
2023-03-06T06:23:41.619Z,94711.34
2023-03-06T06:26:10.245Z,94709.16
2023-03-06T06:28:37.344Z,94708.66
2023-03-06T06:31:12.457Z,94717.91
2023-03-06T06:33:40.453Z,94715.00
2023-03-06T06:36:16.331Z,94712.84
2023-03-06T06:38:43.505Z,94723.47
2023-03-06T06:43:59.001Z,94727.69
2023-03-06T06:47:09.577Z,94719.19
2023-03-06T06:49:13.873Z,94733.19
2023-03-06T06:51:41.262Z,94729.63
2023-03-06T06:54:08.318Z,94732.38
2023-03-06T06:56:35.132Z,94730.91
2023-03-06T06:59:15.742Z,94736.94
2023-03-06T07:01:43.292Z,94736.06
2023-03-06T07:04:14.474Z,94732.22
2023-03-06T07:06:41.702Z,94743.59
2023-03-06T07:09:08.293Z,94744.81
2023-03-06T07:11:34.950Z,94750.69
2023-03-06T07:14:01.981Z,94747.72
2023-03-06T07:16:28.568Z,94751.53
2023-03-06T07:18:55.169Z,94756.31
2023-03-06T07:21:21.978Z,94749.97
2023-03-06T07:23:48.662Z,94750.50
2023-03-06T07:26:15.244Z,94744.72
2023-03-06T07:28:51.943Z,94753.66
2023-03-06T07:31:26.503Z,94752.25
2023-03-06T07:33:54.553Z,94750.34
2023-03-06T07:36:22.897Z,94753.31
2023-03-06T07:38:49.687Z,94756.22
2023-03-06T07:41:17.147Z,94755.44
2023-03-06T07:43:45.383Z,94757.78
2023-03-06T07:46:14.185Z,94762.94
2023-03-06T07:48:41.785Z,94758.44
2023-03-06T07:51:15.276Z,94765.22
2023-03-06T07:53:42.480Z,94765.47
2023-03-06T07:56:09.542Z,94763.75
2023-03-06T07:58:37.744Z,94761.06
2023-03-06T08:01:06.274Z,94757.38
2023-03-06T08:03:33.990Z,94762.53
2023-03-06T08:06:06.394Z,94762.53
2023-03-06T08:08:34.920Z,94765.91
2023-03-06T08:11:01.549Z,94771.88
2023-03-06T08:13:28.152Z,94770.31
2023-03-06T08:15:54.713Z,94774.41
2023-03-06T08:18:21.286Z,94773.75
2023-03-06T08:20:48.073Z,94773.75
2023-03-06T08:23:14.681Z,94772.00
2023-03-06T08:25:41.256Z,94776.34
2023-03-06T08:28:07.848Z,94770.84
2023-03-06T08:30:34.450Z,94778.13
2023-03-06T08:33:01.397Z,94778.56
2023-03-06T08:35:28.062Z,94780.75
2023-03-06T08:37:54.604Z,94776.41
2023-03-06T08:40:23.141Z,94775.59
2023-03-06T08:42:49.686Z,94788.53
2023-03-06T08:45:16.303Z,94782.47
2023-03-06T08:47:42.869Z,94773.59
2023-03-06T08:50:10.187Z,94774.56
2023-03-06T08:52:36.815Z,94777.97
2023-03-06T08:55:03.980Z,94780.75
2023-03-06T08:57:30.803Z,94773.91
2023-03-06T08:59:57.586Z,94784.56
2023-03-06T09:02:24.154Z,94777.06
2023-03-06T09:04:50.768Z,94782.38
2023-03-06T09:07:17.421Z,94768.56
2023-03-06T09:09:44.031Z,94771.53
2023-03-06T09:12:10.613Z,94773.22
2023-03-06T09:14:37.252Z,94775.66
2023-03-06T09:17:03.850Z,94774.91
2023-03-06T09:19:30.407Z,94777.78
2023-03-06T09:21:57.886Z,94779.94
2023-03-06T09:24:24.537Z,94780.50
2023-03-06T09:26:51.679Z,94786.66
2023-03-06T09:29:18.609Z,94793.63
2023-03-06T09:31:45.608Z,94788.66
2023-03-06T09:34:12.446Z,94784.13
2023-03-06T09:36:53.710Z,94791.44
2023-03-06T09:39:22.403Z,94782.28
2023-03-06T09:41:49.858Z,94786.19
2023-03-06T09:44:29.173Z,94791.25
2023-03-06T09:47:25.676Z,94794.13
2023-03-06T09:50:22.013Z,94799.22
2023-03-06T09:53:15.128Z,94795.78
2023-03-06T09:55:44.148Z,94799.47
2023-03-06T09:58:25.265Z,94804.75
2023-03-06T10:00:57.587Z,94799.81
2023-03-06T10:03:44.991Z,94794.72
2023-03-06T10:06:16.302Z,94798.38
2023-03-06T10:08:51.453Z,94796.06
2023-03-06T10:11:32.609Z,94788.97
2023-03-06T10:14:14.044Z,94792.97
2023-03-06T10:16:40.864Z,94794.13
2023-03-06T10:19:14.361Z,94794.38
2023-03-06T10:22:04.357Z,94791.59
2023-03-06T10:25:10.650Z,94799.59
2023-03-06T10:27:49.287Z,94797.25
2023-03-06T10:30:33.847Z,94793.25
2023-03-06T10:33:07.902Z,94796.28
2023-03-06T10:35:48.250Z,94804.84
2023-03-06T10:38:24.597Z,94801.50
2023-03-06T10:40:55.613Z,94796.56
2023-03-06T10:43:23.398Z,94784.91
2023-03-06T10:45:53.113Z,94785.94
2023-03-06T10:48:25.356Z,94789.09
2023-03-06T10:50:54.863Z,94786.47
2023-03-06T10:53:23.253Z,94787.97
2023-03-06T10:56:09.536Z,94790.81
2023-03-06T10:58:36.300Z,94786.47
2023-03-06T11:01:07.225Z,94783.00
2023-03-06T11:03:35.808Z,94786.75
2023-03-06T11:06:15.608Z,94778.75
2023-03-06T11:08:44.388Z,94778.06
2023-03-06T11:11:36.554Z,94782.59
2023-03-06T11:14:14.685Z,94779.50
2023-03-06T11:16:51.890Z,94793.56
2023-03-06T11:19:28.037Z,94781.72
2023-03-06T11:22:05.999Z,94783.81
2023-03-06T11:24:40.526Z,94786.84
2023-03-06T11:27:30.830Z,94784.91
2023-03-06T11:30:01.465Z,94784.34
2023-03-06T11:32:33.133Z,94783.47
2023-03-06T11:35:04.849Z,94771.31
2023-03-06T11:37:45.679Z,94774.31
2023-03-06T11:40:12.183Z,94781.47
2023-03-06T11:43:30.000Z,94773.50
2023-03-06T11:46:02.019Z,94771.31
2023-03-06T11:48:35.376Z,94766.06
2023-03-06T11:51:14.289Z,94768.06
2023-03-06T11:53:40.992Z,94754.13
2023-03-06T11:56:31.762Z,94758.66
2023-03-06T11:59:07.750Z,94761.94
2023-03-06T12:02:14.577Z,94745.31
2023-03-06T12:04:56.444Z,94748.47
2023-03-06T12:07:32.233Z,94744.59
2023-03-06T12:10:14.305Z,94750.81
2023-03-06T12:16:18.580Z,94744.91
2023-03-06T12:19:02.942Z,94746.38
2023-03-06T12:21:47.746Z,94742.13
2023-03-06T12:24:29.480Z,94738.25
2023-03-06T12:26:55.931Z,94743.53
2023-03-06T12:29:47.731Z,94737.22
2023-03-06T12:32:32.571Z,94733.44
2023-03-06T12:35:37.087Z,94731.47
2023-03-06T12:38:17.323Z,94723.47
2023-03-06T12:41:01.420Z,94717.75
2023-03-06T12:44:09.518Z,94725.22
2023-03-06T12:46:41.577Z,94718.50
2023-03-06T12:49:23.046Z,94718.44
2023-03-06T12:51:58.418Z,94719.72
2023-03-06T12:54:29.161Z,94714.34
2023-03-06T12:56:57.827Z,94713.34
2023-03-06T12:59:48.501Z,94714.59
2023-03-06T13:02:36.396Z,94711.19
2023-03-06T13:05:30.396Z,94704.09
2023-03-06T13:07:56.943Z,94712.41
2023-03-06T13:10:30.868Z,94711.81
2023-03-06T13:13:01.621Z,94713.47
2023-03-06T13:15:38.786Z,94710.88
2023-03-06T13:18:23.386Z,94705.50
2023-03-06T13:20:52.383Z,94703.69
2023-03-06T13:23:37.309Z,94706.84
2023-03-06T13:26:24.372Z,94702.34
2023-03-06T13:28:53.968Z,94710.28
2023-03-06T13:31:47.834Z,94713.34
2023-03-06T13:34:36.340Z,94710.75
2023-03-06T13:37:23.170Z,94711.78
2023-03-06T13:39:55.600Z,94710.31
2023-03-06T13:42:36.610Z,94706.22
2023-03-06T13:45:16.523Z,94704.09
2023-03-06T13:50:46.885Z,94701.34
2023-03-06T13:53:46.807Z,94701.88
2023-03-06T13:56:47.372Z,94693.50
2023-03-06T13:59:41.952Z,94693.69
2023-03-06T14:02:16.767Z,94691.81
2023-03-06T14:04:54.568Z,94691.56
2023-03-06T14:07:25.677Z,94692.09
2023-03-06T14:10:03.028Z,94701.25
2023-03-06T14:12:36.055Z,94691.88
2023-03-06T14:15:17.608Z,94703.16
2023-03-06T14:18:05.850Z,94690.91
2023-03-06T14:20:42.147Z,94696.75
2023-03-06T14:23:21.622Z,94694.00
2023-03-06T14:25:54.941Z,94676.53
2023-03-06T14:28:24.187Z,94667.69
2023-03-06T14:30:53.077Z,94679.13
2023-03-06T14:33:44.825Z,94681.63
2023-03-06T14:36:14.912Z,94682.56
2023-03-06T14:38:51.689Z,94687.09
2023-03-06T14:41:30.263Z,94674.94
2023-03-06T14:44:12.012Z,94677.03
2023-03-06T14:46:38.533Z,94672.78
2023-03-06T14:49:08.807Z,94680.81
2023-03-06T14:51:42.816Z,94675.66
2023-03-06T14:54:17.255Z,94676.81
2023-03-06T14:56:47.373Z,94682.31
2023-03-06T14:59:18.196Z,94686.59
2023-03-06T15:01:49.475Z,94679.22
2023-03-06T15:04:36.554Z,94682.00
2023-03-06T15:07:09.404Z,94679.03
2023-03-06T15:09:38.633Z,94680.31
2023-03-06T15:12:08.633Z,94677.09
2023-03-06T15:14:41.234Z,94682.03
2023-03-06T15:17:17.030Z,94682.44
2023-03-06T15:19:48.544Z,94684.09
2023-03-06T15:22:39.196Z,94673.72
2023-03-06T15:25:29.975Z,94676.38
2023-03-06T15:27:57.522Z,94685.72
2023-03-06T15:30:29.839Z,94682.34
2023-03-06T15:33:24.380Z,94679.28
2023-03-06T15:36:21.280Z,94679.75
2023-03-06T15:38:48.271Z,94676.72
2023-03-06T15:41:30.300Z,94672.44
2023-03-06T15:43:58.484Z,94674.66
2023-03-06T15:46:25.387Z,94671.78
2023-03-06T15:48:53.950Z,94670.22
2023-03-06T15:51:20.634Z,94674.25
2023-03-06T15:53:47.927Z,94674.38
2023-03-06T15:56:14.639Z,94670.81
2023-03-06T15:58:42.490Z,94674.47
2023-03-06T16:01:16.080Z,94677.41
2023-03-06T16:03:42.971Z,94669.38
2023-03-06T16:06:19.663Z,94661.38
2023-03-06T16:08:46.283Z,94673.97
2023-03-06T16:11:43.325Z,94679.75
2023-03-06T16:14:23.742Z,94681.84
2023-03-06T16:16:52.197Z,94676.22
2023-03-06T16:19:26.444Z,94677.81
2023-03-06T16:21:54.882Z,94679.41
2023-03-06T16:24:21.861Z,94682.19
2023-03-06T16:26:52.895Z,94690.34
2023-03-06T16:29:22.399Z,94682.66
2023-03-06T16:31:49.116Z,94685.78
2023-03-06T16:34:15.792Z,94691.28
2023-03-06T16:36:42.584Z,94685.69
2023-03-06T16:39:14.463Z,94686.44
2023-03-06T16:41:41.083Z,94692.50
2023-03-06T16:44:09.950Z,94692.19
2023-03-06T16:46:40.709Z,94695.75
2023-03-06T16:49:07.333Z,94701.47
2023-03-06T16:51:34.021Z,94700.34
2023-03-06T16:54:00.597Z,94699.88
2023-03-06T16:56:27.158Z,94709.00
2023-03-06T16:58:54.025Z,94703.75
2023-03-06T17:01:20.650Z,94709.00
2023-03-06T17:03:47.406Z,94711.47
2023-03-06T17:06:19.579Z,94712.25
2023-03-06T17:08:47.842Z,94715.78
2023-03-06T17:11:14.815Z,94716.03
2023-03-06T17:13:41.443Z,94723.81
2023-03-06T17:16:11.240Z,94721.84
2023-03-06T17:18:38.084Z,94722.91
2023-03-06T17:21:04.855Z,94719.38
2023-03-06T17:23:31.494Z,94717.84
2023-03-06T17:26:10.478Z,94732.00
2023-03-06T17:28:37.981Z,94730.59
2023-03-06T17:31:15.642Z,94731.13
2023-03-06T17:33:42.743Z,94729.66
2023-03-06T17:36:10.115Z,94733.81
2023-03-06T17:38:36.962Z,94738.78
2023-03-06T17:41:05.807Z,94742.13
2023-03-06T17:43:33.268Z,94725.84
2023-03-06T17:46:08.378Z,94732.47
2023-03-06T17:48:35.572Z,94727.47
2023-03-06T17:51:02.337Z,94725.63
2023-03-06T17:53:29.162Z,94721.94
2023-03-06T17:55:57.984Z,94727.56
2023-03-06T17:58:25.999Z,94734.38
2023-03-06T18:00:52.964Z,94730.56
2023-03-06T18:03:19.724Z,94730.66
2023-03-06T18:05:46.319Z,94727.31
2023-03-06T18:08:13.260Z,94728.88
2023-03-06T18:10:41.597Z,94731.16
2023-03-06T18:13:09.975Z,94726.91
2023-03-06T18:15:40.647Z,94733.22
2023-03-06T18:18:08.177Z,94729.34
2023-03-06T18:20:41.753Z,94733.03
2023-03-06T18:23:08.480Z,94735.28
2023-03-06T18:25:35.295Z,94733.44
2023-03-06T18:28:01.969Z,94735.25
2023-03-06T18:30:28.962Z,94737.22
2023-03-06T18:32:55.761Z,94735.00
2023-03-06T18:35:22.408Z,94738.78
2023-03-06T18:37:48.951Z,94741.81
2023-03-06T18:40:15.796Z,94741.41
2023-03-06T18:42:42.354Z,94746.41
2023-03-06T18:45:09.976Z,94747.28
2023-03-06T18:47:36.631Z,94749.94
2023-03-06T18:50:03.448Z,94753.56
2023-03-06T18:52:29.978Z,94748.44
2023-03-06T18:54:56.629Z,94740.75
2023-03-06T18:57:23.347Z,94744.63
2023-03-06T18:59:50.037Z,94735.13
2023-03-06T19:02:17.791Z,94735.13
2023-03-06T19:04:44.329Z,94738.25
2023-03-06T19:07:13.145Z,94738.13
2023-03-06T19:09:39.878Z,94744.34
2023-03-06T19:12:06.758Z,94734.25
2023-03-06T19:14:33.460Z,94735.59
2023-03-06T19:17:00.080Z,94743.66
2023-03-06T19:19:26.864Z,94741.72
2023-03-06T19:21:53.726Z,94750.03
2023-03-06T19:24:20.360Z,94749.00
2023-03-06T19:26:47.070Z,94745.53
2023-03-06T19:29:13.632Z,94747.06
2023-03-06T19:31:41.146Z,94747.94
2023-03-06T19:34:08.309Z,94747.69
2023-03-06T19:36:34.973Z,94745.13
2023-03-06T19:39:04.230Z,94747.19
2023-03-06T19:41:30.938Z,94748.44
2023-03-06T19:43:59.505Z,94751.22
2023-03-06T19:46:27.023Z,94750.38
2023-03-06T19:48:56.206Z,94752.41
2023-03-06T19:51:23.167Z,94751.53
2023-03-06T19:53:49.713Z,94752.94
2023-03-06T19:56:23.600Z,94749.34
2023-03-06T19:58:51.016Z,94744.97
2023-03-06T20:01:20.023Z,94735.59
2023-03-06T20:03:47.219Z,94739.84
2023-03-06T20:06:16.328Z,94734.56
2023-03-06T20:08:44.159Z,94737.00
2023-03-06T20:11:22.150Z,94735.47
2023-03-06T20:13:48.937Z,94733.25
2023-03-06T20:16:17.362Z,94732.91
2023-03-06T20:18:44.342Z,94730.47
2023-03-06T20:21:11.135Z,94733.53
2023-03-06T20:23:38.007Z,94730.09
2023-03-06T20:26:07.090Z,94734.34
2023-03-06T20:28:33.899Z,94734.97
2023-03-06T20:31:08.771Z,94721.31
2023-03-06T20:33:35.439Z,94727.13
2023-03-06T20:36:02.347Z,94722.19
2023-03-06T20:38:29.031Z,94721.66
2023-03-06T20:40:57.721Z,94720.00
2023-03-06T20:43:24.256Z,94723.09
2023-03-06T20:46:02.491Z,94715.44
2023-03-06T20:48:29.798Z,94720.88
2023-03-06T20:51:00.934Z,94714.50
2023-03-06T20:53:27.806Z,94719.19
2023-03-06T20:55:54.553Z,94721.69
2023-03-06T20:58:26.544Z,94723.09
2023-03-06T21:00:53.091Z,94720.38
2023-03-06T21:03:19.777Z,94715.88
2023-03-06T21:05:47.758Z,94719.31
2023-03-06T21:08:15.547Z,94709.09
2023-03-06T21:10:43.968Z,94710.72
2023-03-06T21:13:11.448Z,94706.06
2023-03-06T21:15:39.154Z,94715.97
2023-03-06T21:18:06.282Z,94708.63
2023-03-06T21:20:33.979Z,94708.69
2023-03-06T21:23:01.711Z,94706.22
2023-03-06T21:25:28.866Z,94704.19
2023-03-06T21:27:56.292Z,94701.03
2023-03-06T21:30:22.863Z,94704.09
2023-03-06T21:32:51.852Z,94694.19
2023-03-06T21:35:19.288Z,94702.78
2023-03-06T21:37:46.993Z,94692.97
2023-03-06T21:40:14.219Z,94694.38
2023-03-06T21:42:41.252Z,94684.09
2023-03-06T21:45:08.199Z,94691.84
2023-03-06T21:47:38.674Z,94692.41
2023-03-06T21:50:07.173Z,94684.00
2023-03-06T21:52:33.773Z,94682.25
2023-03-06T21:55:00.339Z,94675.75
2023-03-06T21:57:26.952Z,94676.38
2023-03-06T21:59:53.505Z,94682.84
2023-03-06T22:02:21.224Z,94679.69
2023-03-06T22:04:54.219Z,94671.53
2023-03-06T22:07:21.539Z,94669.66
2023-03-06T22:09:48.194Z,94674.22
2023-03-06T22:12:14.711Z,94668.19
2023-03-06T22:14:43.451Z,94667.50
2023-03-06T22:17:10.015Z,94666.41
2023-03-06T22:19:36.606Z,94667.41
2023-03-06T22:22:03.755Z,94660.63
2023-03-06T22:24:31.651Z,94658.06
2023-03-06T22:26:58.517Z,94660.97
2023-03-06T22:29:25.090Z,94654.69
2023-03-06T22:31:52.717Z,94657.91
2023-03-06T22:34:19.324Z,94658.31
2023-03-06T22:36:45.963Z,94652.09
2023-03-06T22:39:13.898Z,94659.00
2023-03-06T22:41:41.255Z,94658.31
2023-03-06T22:44:07.904Z,94653.72
2023-03-06T22:46:34.534Z,94664.09
2023-03-06T22:49:04.992Z,94658.94
2023-03-06T22:51:31.793Z,94654.81
2023-03-06T22:53:58.639Z,94655.00
2023-03-06T22:56:25.217Z,94659.16
2023-03-06T22:58:51.970Z,94655.72
2023-03-06T23:01:21.173Z,94657.47
2023-03-06T23:03:50.411Z,94654.31
2023-03-06T23:06:19.984Z,94648.06
2023-03-06T23:09:02.106Z,94648.75
2023-03-06T23:11:29.271Z,94644.00
2023-03-06T23:14:15.925Z,94631.56
2023-03-06T23:17:00.868Z,94641.16
2023-03-06T23:19:49.184Z,94632.31
2023-03-06T23:22:34.350Z,94634.94
2023-03-06T23:25:19.440Z,94628.78
2023-03-06T23:27:45.980Z,94630.44
2023-03-06T23:30:13.045Z,94633.31
2023-03-06T23:32:39.743Z,94628.66
2023-03-06T23:35:07.523Z,94632.13
2023-03-06T23:37:34.044Z,94631.97
2023-03-06T23:40:00.839Z,94624.84
2023-03-06T23:42:27.387Z,94624.25
2023-03-06T23:44:53.931Z,94627.81
2023-03-06T23:47:20.545Z,94623.44
2023-03-06T23:49:47.115Z,94612.66
2023-03-06T23:52:13.911Z,94610.22
2023-03-06T23:54:40.650Z,94609.75
2023-03-06T23:57:07.505Z,94617.41
2023-03-06T23:59:34.072Z,94606.47
